Laconia, New Hampshire
Current Conditions -  °F | °C
As of 7:55 PM on Monday 22 Dec 2014 (Local Time) from KLCI Reporting Station
Overcast Overcast  
Wind Chill: 34°   Ceiling: 3300
Heat Index: 34°   Visibility: 5mi
Dew Point: 28°   Wind: 3mph
Humidity: 81%   Direction: 20°NNE
Pressure: 30.33"   Gusts: NA
Location:  43.56°N, 71.48°W
Report Text: KLCI 230055Z AUTO 02003KT 5SM FEW014 SCT020 OVC033 01/M02 A3033 RMK AO1
Loading
Personal Weather Stations






























Interactive Weather Map New forecast layout! Learn more

10-Day Weather Forecast

Advertisements
Track Severe Weather on mobile